Time;durP1;ratioP1;P1;durP2;ratioP2;P2;SDS_P1;SDS_P2;PMS_P1;PMS_P2;Temp;Humidity;BMP_temperature;BMP_pressure;BME280_temperature;BME280_humidity;BME280_pressure;Samples;Min_cycle;Max_cycle;Signal;HPM_P1;HPM_P2
2024/01/25 00:01:35;;;;;;;24.15;16.13;;;7.10;99.90;;;;;;4895268;29;20044;-80
2024/01/25 00:04:01;;;;;;;25.80;15.27;;;7.10;99.90;;;;;;4879988;29;20089;-81
2024/01/25 00:06:28;;;;;;;25.65;16.08;;;7.10;99.90;;;;;;4880192;29;20068;-81
2024/01/25 00:08:54;;;;;;;23.92;15.23;;;7.00;99.90;;;;;;4879690;29;20029;-82
2024/01/25 00:11:20;;;;;;;21.52;16.13;;;7.00;99.90;;;;;;4849371;29;20025;-82
2024/01/25 00:13:47;;;;;;;23.92;15.77;;;7.00;99.90;;;;;;4879815;29;20041;-79
2024/01/25 00:16:13;;;;;;;26.45;16.70;;;6.90;99.90;;;;;;4881171;29;20368;-81
2024/01/25 00:18:39;;;;;;;22.95;16.45;;;6.90;99.90;;;;;;4849267;29;20029;-82
2024/01/25 00:21:06;;;;;;;25.85;16.90;;;6.90;99.90;;;;;;4864472;29;20043;-82
2024/01/25 00:23:33;;;;;;;26.25;17.30;;;6.90;99.90;;;;;;4849118;29;20029;-82
2024/01/25 00:26:00;;;;;;;28.27;16.67;;;6.90;99.90;;;;;;4864443;29;20041;-81
2024/01/25 00:28:28;;;;;;;27.00;16.55;;;6.90;99.90;;;;;;4883008;29;20025;-81
2024/01/25 00:30:54;;;;;;;23.67;16.98;;;6.90;99.90;;;;;;4878361;29;20036;-85
2024/01/25 00:33:21;;;;;;;26.45;18.63;;;6.90;99.90;;;;;;4879809;29;20033;-82
2024/01/25 00:35:48;;;;;;;29.58;16.67;;;6.80;99.90;;;;;;4879714;29;20036;-80
2024/01/25 00:38:14;;;;;;;26.40;16.08;;;6.70;99.90;;;;;;4879308;29;20036;-80
2024/01/25 00:40:41;;;;;;;22.70;16.20;;;6.70;99.90;;;;;;4896058;29;20049;-81
2024/01/25 00:43:08;;;;;;;25.85;16.45;;;6.70;99.90;;;;;;4898265;29;20099;-81
2024/01/25 00:45:35;;;;;;;25.20;15.93;;;6.60;99.90;;;;;;4882707;29;20043;-81
2024/01/25 00:48:01;;;;;;;24.48;16.38;;;6.60;99.90;;;;;;4882746;29;20716;-82
2024/01/25 00:50:28;;;;;;;23.73;15.90;;;6.50;99.90;;;;;;4870017;29;20033;-81
2024/01/25 00:52:54;;;;;;;25.13;16.83;;;6.50;99.90;;;;;;4879325;29;20387;-81
2024/01/25 00:55:21;;;;;;;23.67;16.65;;;6.40;99.90;;;;;;4898311;29;20053;-81
2024/01/25 00:57:51;;;;;;;32.33;17.42;;;6.40;99.90;;;;;;4899526;29;20067;-82
2024/01/25 01:00:18;;;;;;;22.27;16.38;;;6.30;99.90;;;;;;4888222;29;20061;-82
2024/01/25 01:02:45;;;;;;;22.83;17.15;;;6.30;99.90;;;;;;4881295;29;20041;-81
2024/01/25 01:05:13;;;;;;;31.25;17.25;;;6.30;99.90;;;;;;4883067;29;20105;-81
2024/01/25 01:07:42;;;;;;;26.27;16.33;;;6.30;99.90;;;;;;4863516;29;20372;-81
2024/01/25 01:10:09;;;;;;;25.33;15.88;;;6.30;99.90;;;;;;4855104;29;20077;-81
2024/01/25 01:12:36;;;;;;;25.33;16.17;;;6.20;99.90;;;;;;4879581;29;20035;-81
2024/01/25 01:15:03;;;;;;;36.85;18.30;;;6.30;99.90;;;;;;4863736;29;20392;-81
2024/01/25 01:17:30;;;;;;;19.38;14.65;;;6.30;99.90;;;;;;4879978;29;20027;-81
2024/01/25 01:19:56;;;;;;;25.35;15.73;;;6.30;99.90;;;;;;4882188;29;20111;-81
2024/01/25 01:22:22;;;;;;;23.05;15.45;;;6.30;99.90;;;;;;4883263;29;20037;-81
2024/01/25 01:24:49;;;;;;;27.35;14.60;;;6.30;99.90;;;;;;4877435;29;20036;-82
2024/01/25 01:27:17;;;;;;;22.63;15.30;;;6.20;99.90;;;;;;4882810;29;20036;-81
2024/01/25 01:29:44;;;;;;;25.77;14.82;;;6.10;99.90;;;;;;4888665;29;20072;-81
2024/01/25 01:32:10;;;;;;;22.45;13.82;;;6.00;99.90;;;;;;4878606;29;20508;-82
2024/01/25 01:34:36;;;;;;;25.23;14.88;;;6.00;99.90;;;;;;4880297;29;20084;-81
2024/01/25 01:37:03;;;;;;;26.30;14.73;;;5.90;99.90;;;;;;4863485;29;20064;-81
2024/01/25 01:39:29;;;;;;;24.30;15.00;;;5.80;99.90;;;;;;4847552;29;20041;-81
2024/01/25 01:41:55;;;;;;;24.73;14.77;;;5.80;99.90;;;;;;4875666;29;20120;-81
2024/01/25 01:44:22;;;;;;;24.15;14.85;;;5.80;99.90;;;;;;4860198;29;20120;-81
2024/01/25 01:46:48;;;;;;;26.67;15.27;;;5.80;99.90;;;;;;4875569;29;20493;-81
2024/01/25 01:49:15;;;;;;;20.38;14.98;;;5.80;99.90;;;;;;4875586;29;20037;-82
2024/01/25 01:51:43;;;;;;;18.15;14.20;;;5.80;99.90;;;;;;4860101;29;20395;-81
2024/01/25 01:54:10;;;;;;;21.00;13.55;;;5.80;99.90;;;;;;4875723;29;20029;-82
2024/01/25 01:56:36;;;;;;;18.80;12.90;;;5.90;99.90;;;;;;4875561;29;20033;-81
2024/01/25 01:59:08;;;;;;;21.17;13.65;;;5.90;99.90;;;;;;4875427;29;20116;-81
2024/01/25 02:01:35;;;;;;;19.33;13.25;;;5.90;99.90;;;;;;4859727;29;20046;-81
2024/01/25 02:04:01;;;;;;;21.77;14.38;;;5.90;99.90;;;;;;4860003;29;20029;-81
2024/01/25 02:06:27;;;;;;;22.92;13.23;;;5.90;99.90;;;;;;4859915;29;20064;-81
2024/01/25 02:08:55;;;;;;;20.38;14.10;;;5.80;99.90;;;;;;4859858;29;20096;-81
2024/01/25 02:11:22;;;;;;;18.98;12.93;;;5.70;99.90;;;;;;4859685;29;20495;-81
2024/01/25 02:13:48;;;;;;;22.35;13.10;;;5.70;99.90;;;;;;4875400;29;20033;-81
2024/01/25 02:16:15;;;;;;;16.95;12.88;;;5.80;99.90;;;;;;4875171;29;20041;-81
2024/01/25 02:18:42;;;;;;;14.63;10.93;;;5.80;99.90;;;;;;4858923;29;20057;-81
2024/01/25 02:21:09;;;;;;;16.80;11.63;;;5.90;99.90;;;;;;4872838;29;20085;-81
2024/01/25 02:23:35;;;;;;;13.35;11.25;;;6.00;99.90;;;;;;4859662;29;20057;-82
2024/01/25 02:26:02;;;;;;;19.20;11.82;;;6.00;99.90;;;;;;4875055;29;20535;-81
2024/01/25 02:28:29;;;;;;;15.93;10.77;;;6.00;99.90;;;;;;4875026;29;20109;-81
2024/01/25 02:30:55;;;;;;;17.65;12.18;;;6.10;99.90;;;;;;4859418;29;20065;-81
2024/01/25 02:33:21;;;;;;;14.77;11.70;;;6.00;99.90;;;;;;4860868;29;20055;-81
2024/01/25 02:35:47;;;;;;;15.23;11.13;;;5.90;99.90;;;;;;4875025;29;20037;-81
2024/01/25 02:38:14;;;;;;;19.73;11.40;;;5.80;99.90;;;;;;4859507;29;20502;-81
2024/01/25 02:40:40;;;;;;;21.25;12.38;;;5.70;99.90;;;;;;4880393;29;20142;-81
2024/01/25 02:43:06;;;;;;;16.85;11.45;;;5.60;99.90;;;;;;4861072;29;20053;-81
2024/01/25 02:45:33;;;;;;;18.58;11.13;;;5.50;99.90;;;;;;4876877;29;20053;-81
2024/01/25 02:48:01;;;;;;;18.17;12.18;;;5.50;99.90;;;;;;4862380;29;20498;-81
2024/01/25 02:50:28;;;;;;;13.60;11.45;;;5.40;99.90;;;;;;4854720;29;20093;-81
2024/01/25 02:52:54;;;;;;;14.25;10.95;;;5.40;99.90;;;;;;4850824;29;20041;-81
2024/01/25 02:55:21;;;;;;;20.88;13.60;;;5.30;99.90;;;;;;4860604;29;20025;-81
2024/01/25 02:57:47;;;;;;;19.88;12.05;;;5.30;99.90;;;;;;4859586;29;20384;-81
2024/01/25 03:00:17;;;;;;;15.00;11.68;;;5.40;99.90;;;;;;4859216;29;20040;-82
2024/01/25 03:02:46;;;;;;;16.05;11.55;;;5.30;99.90;;;;;;4856707;29;20513;-81
2024/01/25 03:05:12;;;;;;;15.63;11.15;;;5.30;99.90;;;;;;4847123;29;20559;-81
2024/01/25 03:07:39;;;;;;;21.92;13.18;;;5.20;99.90;;;;;;4862381;29;20037;-81
2024/01/25 03:10:05;;;;;;;19.73;13.18;;;5.10;99.90;;;;;;4862538;29;20029;-81
2024/01/25 03:12:32;;;;;;;22.38;14.07;;;5.10;99.90;;;;;;4862163;29;20081;-81
2024/01/25 03:14:58;;;;;;;21.35;12.88;;;5.00;99.90;;;;;;4877849;29;20081;-80
2024/01/25 03:17:25;;;;;;;20.38;13.25;;;5.00;99.90;;;;;;4862414;29;20032;-81
2024/01/25 03:19:52;;;;;;;17.52;13.13;;;5.00;99.90;;;;;;4850309;29;20037;-80
2024/01/25 03:22:18;;;;;;;24.35;13.25;;;4.90;99.90;;;;;;4869467;29;20073;-80
2024/01/25 03:24:45;;;;;;;21.13;13.02;;;4.90;99.90;;;;;;4844370;29;20029;-81
2024/01/25 03:27:14;;;;;;;22.58;13.65;;;4.80;99.90;;;;;;4862454;29;20089;-81
2024/01/25 03:29:44;;;;;;;19.73;13.60;;;4.80;99.90;;;;;;4863490;29;20025;-81
2024/01/25 03:32:11;;;;;;;20.60;13.82;;;4.80;99.90;;;;;;4867527;29;20029;-81
2024/01/25 03:34:37;;;;;;;23.88;14.15;;;4.70;99.90;;;;;;4862434;29;20033;-81
2024/01/25 03:37:04;;;;;;;23.67;14.18;;;4.80;99.90;;;;;;4862014;29;20033;-81
2024/01/25 03:39:30;;;;;;;26.15;14.50;;;4.80;99.90;;;;;;4865338;29;20052;-80
2024/01/25 03:41:57;;;;;;;22.73;15.35;;;4.70;99.90;;;;;;4877531;29;20117;-81
2024/01/25 03:44:23;;;;;;;30.15;16.95;;;4.70;99.90;;;;;;4877734;29;20455;-81
2024/01/25 03:46:50;;;;;;;27.38;15.60;;;4.80;99.90;;;;;;4863314;29;20049;-81
2024/01/25 03:49:16;;;;;;;23.08;15.77;;;4.90;99.90;;;;;;4862029;29;20030;-81
2024/01/25 03:51:43;;;;;;;24.40;16.00;;;4.90;99.90;;;;;;4873544;29;20429;-81
2024/01/25 03:54:10;;;;;;;22.05;14.98;;;4.80;99.90;;;;;;4843701;29;20038;-81
2024/01/25 03:56:36;;;;;;;23.00;16.08;;;4.80;99.90;;;;;;4843644;29;20026;-81
2024/01/25 03:59:03;;;;;;;22.40;15.00;;;4.70;99.90;;;;;;4843612;29;20045;-81
2024/01/25 04:01:29;;;;;;;24.17;15.77;;;4.70;99.90;;;;;;4858742;29;20053;-81
2024/01/25 04:03:56;;;;;;;22.90;14.82;;;4.70;99.90;;;;;;4843433;29;20447;-79
2024/01/25 04:06:25;;;;;;;20.63;14.15;;;4.60;99.90;;;;;;4843227;29;20026;-79
2024/01/25 04:08:51;;;;;;;25.95;14.60;;;4.60;99.90;;;;;;4858610;29;20563;-79
2024/01/25 04:11:18;;;;;;;29.55;14.35;;;4.50;99.90;;;;;;4844355;29;20067;-79
2024/01/25 04:13:44;;;;;;;21.85;14.02;;;4.50;99.90;;;;;;4876903;29;20529;-78
2024/01/25 04:16:14;;;;;;;23.42;13.90;;;4.50;99.90;;;;;;4861781;29;20033;-79
2024/01/25 04:18:41;;;;;;;21.60;13.75;;;4.50;99.90;;;;;;4861649;29;20029;-79
2024/01/25 04:21:09;;;;;;;18.48;13.93;;;4.50;99.90;;;;;;4861259;29;20391;-79
2024/01/25 04:23:35;;;;;;;19.35;12.85;;;4.50;99.90;;;;;;4862497;29;20085;-78
2024/01/25 04:26:02;;;;;;;19.80;13.27;;;4.50;99.90;;;;;;4861415;29;20051;-78
2024/01/25 04:28:28;;;;;;;20.85;13.98;;;4.40;99.90;;;;;;4858088;29;20042;-79
2024/01/25 04:30:54;;;;;;;29.25;14.07;;;4.40;99.90;;;;;;4875288;29;20035;-79
2024/01/25 04:33:20;;;;;;;18.45;13.43;;;4.40;99.90;;;;;;4854906;29;20026;-78
2024/01/25 04:35:47;;;;;;;24.30;12.88;;;4.50;99.90;;;;;;4843045;29;20029;-80
2024/01/25 04:38:13;;;;;;;16.60;12.60;;;4.50;99.90;;;;;;4845090;29;20033;-80
2024/01/25 04:40:39;;;;;;;19.80;12.93;;;4.50;99.90;;;;;;4870989;29;20091;-79
2024/01/25 04:43:06;;;;;;;20.35;13.02;;;4.40;99.90;;;;;;4894728;29;20044;-79
2024/01/25 04:45:32;;;;;;;17.52;12.77;;;4.40;99.90;;;;;;4864229;29;20040;-79
2024/01/25 04:47:59;;;;;;;19.00;12.57;;;4.30;99.90;;;;;;4879373;29;20033;-79
2024/01/25 04:50:25;;;;;;;19.25;12.73;;;4.20;99.90;;;;;;4859759;29;20033;-80
2024/01/25 04:52:51;;;;;;;16.73;12.23;;;4.20;99.90;;;;;;4863899;29;20063;-80
2024/01/25 04:55:19;;;;;;;17.67;12.82;;;4.20;99.90;;;;;;4894980;29;20032;-79
2024/01/25 04:57:47;;;;;;;16.77;13.35;;;4.30;99.90;;;;;;4880593;29;20056;-78
2024/01/25 05:00:15;;;;;;;18.98;12.90;;;4.20;99.90;;;;;;4871346;29;20407;-79
2024/01/25 05:02:41;;;;;;;19.13;12.50;;;4.30;99.90;;;;;;4894746;29;20044;-79
2024/01/25 05:05:07;;;;;;;16.20;12.38;;;4.30;99.90;;;;;;4880503;29;20048;-78
2024/01/25 05:07:34;;;;;;;20.63;12.65;;;4.30;99.90;;;;;;4894906;29;20487;-77
2024/01/25 05:10:00;;;;;;;21.23;12.95;;;4.20;99.90;;;;;;4880278;29;20025;-80
2024/01/25 05:12:27;;;;;;;19.38;13.65;;;4.20;99.90;;;;;;4872350;29;20033;-79
2024/01/25 05:14:53;;;;;;;17.95;13.32;;;4.20;99.90;;;;;;4880315;29;20029;-79
2024/01/25 05:17:19;;;;;;;19.30;13.80;;;4.20;99.90;;;;;;4879154;29;20033;-79
2024/01/25 05:19:46;;;;;;;16.58;12.85;;;4.20;99.90;;;;;;4856346;29;20021;-80
2024/01/25 05:22:13;;;;;;;15.38;12.23;;;4.20;99.90;;;;;;4860340;29;20045;-79
2024/01/25 05:24:39;;;;;;;21.08;12.90;;;4.20;99.90;;;;;;4844950;29;20116;-79
2024/01/25 05:27:05;;;;;;;14.65;12.38;;;4.20;99.90;;;;;;4844921;29;20037;-79
2024/01/25 05:29:32;;;;;;;15.43;12.25;;;4.10;99.90;;;;;;4847629;29;20053;-79
2024/01/25 05:32:01;;;;;;;16.33;12.73;;;4.10;99.90;;;;;;4879971;29;20060;-78
2024/01/25 05:34:27;;;;;;;13.73;12.30;;;4.10;99.90;;;;;;4879978;29;20112;-80
2024/01/25 05:36:54;;;;;;;14.40;11.52;;;4.00;99.90;;;;;;4850682;29;20037;-80
2024/01/25 05:39:20;;;;;;;16.98;11.77;;;4.00;99.90;;;;;;4856422;29;20550;-78
2024/01/25 05:41:46;;;;;;;14.52;11.05;;;4.00;99.90;;;;;;4859911;29;20503;-79
2024/01/25 05:44:16;;;;;;;14.10;11.10;;;3.90;99.90;;;;;;4861216;29;20108;-79
2024/01/25 05:46:42;;;;;;;14.43;11.60;;;3.90;99.90;;;;;;4859833;29;20033;-79
2024/01/25 05:49:08;;;;;;;12.13;10.88;;;3.90;99.90;;;;;;4861226;29;20030;-79
2024/01/25 05:51:35;;;;;;;17.95;11.43;;;3.80;99.90;;;;;;4873428;29;20097;-80
2024/01/25 05:54:02;;;;;;;14.23;11.70;;;3.80;99.90;;;;;;4859620;29;20036;-79
2024/01/25 05:56:28;;;;;;;17.15;12.43;;;3.80;99.90;;;;;;4844492;29;20121;-79
2024/01/25 05:58:54;;;;;;;18.23;12.32;;;3.90;99.90;;;;;;4860537;29;20114;-80
2024/01/25 06:01:21;;;;;;;16.30;12.77;;;3.90;99.90;;;;;;4871438;29;20034;-80
2024/01/25 06:03:47;;;;;;;20.85;12.95;;;3.90;99.90;;;;;;4860858;29;20539;-79
2024/01/25 06:06:14;;;;;;;17.52;13.25;;;3.90;99.90;;;;;;4859868;29;20033;-80
2024/01/25 06:08:40;;;;;;;17.67;13.10;;;3.90;99.90;;;;;;4846831;29;20036;-79
2024/01/25 06:11:09;;;;;;;19.88;12.18;;;3.90;99.90;;;;;;4844269;29;20135;-79
2024/01/25 06:13:42;;;;;;;18.98;12.70;;;3.80;99.90;;;;;;4859709;29;20033;-79
2024/01/25 06:16:08;;;;;;;18.40;12.52;;;3.80;99.90;;;;;;4859420;29;20033;-80
2024/01/25 06:18:35;;;;;;;18.60;12.75;;;3.80;99.90;;;;;;4860740;29;20037;-79
2024/01/25 06:21:01;;;;;;;21.15;13.32;;;3.80;99.90;;;;;;4860609;29;20030;-80
2024/01/25 06:23:27;;;;;;;17.42;13.60;;;3.80;99.90;;;;;;4859474;29;20034;-80
2024/01/25 06:25:53;;;;;;;31.77;14.88;;;3.80;99.90;;;;;;4860736;29;20081;-80
2024/01/25 06:28:20;;;;;;;17.50;13.00;;;3.90;99.90;;;;;;4846299;29;20033;-80
2024/01/25 06:30:48;;;;;;;19.80;13.15;;;3.90;99.90;;;;;;4850718;29;20128;-79
2024/01/25 06:33:14;;;;;;;21.13;13.70;;;3.90;99.90;;;;;;4859445;29;20053;-79
2024/01/25 06:35:40;;;;;;;20.45;13.75;;;4.00;99.90;;;;;;4860570;29;20029;-80
2024/01/25 06:38:07;;;;;;;20.98;12.93;;;4.10;99.90;;;;;;4843701;29;20117;-80
2024/01/25 06:40:33;;;;;;;26.08;14.98;;;4.20;99.90;;;;;;4864125;29;20052;-78
2024/01/25 06:43:00;;;;;;;23.92;14.05;;;4.30;99.90;;;;;;4859337;29;20049;-81
2024/01/25 06:45:26;;;;;;;23.05;12.57;;;4.60;99.90;;;;;;4843892;29;20411;-78
2024/01/25 06:47:53;;;;;;;14.95;11.18;;;5.00;99.90;;;;;;4850251;29;20029;-79
2024/01/25 06:50:20;;;;;;;18.55;10.20;;;5.40;99.90;;;;;;4846938;29;20034;-79
2024/01/25 06:52:47;;;;;;;17.15;10.52;;;5.80;99.90;;;;;;4859227;29;20029;-80
2024/01/25 06:55:13;;;;;;;15.55;10.68;;;6.10;99.90;;;;;;4860354;29;20512;-80
2024/01/25 06:57:39;;;;;;;13.43;10.65;;;6.30;99.90;;;;;;4860161;29;20033;-79
2024/01/25 07:00:07;;;;;;;16.45;12.90;;;6.40;99.90;;;;;;4845003;29;20032;-79
2024/01/25 07:02:34;;;;;;;25.75;14.70;;;6.60;99.90;;;;;;4860441;29;20037;-79
2024/01/25 07:05:01;;;;;;;23.00;13.05;;;6.80;99.90;;;;;;4845100;29;20062;-79
2024/01/25 07:07:27;;;;;;;22.85;14.88;;;7.00;99.90;;;;;;4862859;29;20040;-80
2024/01/25 07:09:57;;;;;;;27.30;18.42;;;7.50;99.90;;;;;;4862530;29;20030;-80
2024/01/25 07:12:24;;;;;;;26.60;20.73;;;7.90;99.90;;;;;;4863855;29;20458;-83
2024/01/25 07:14:50;;;;;;;34.63;27.10;;;8.50;99.90;;;;;;4877400;29;20029;-79
2024/01/25 07:17:16;;;;;;;41.53;30.90;;;9.00;99.90;;;;;;4863706;29;20112;-79
2024/01/25 07:19:43;;;;;;;46.17;31.52;;;9.30;99.90;;;;;;4862488;29;20034;-81
2024/01/25 07:22:11;;;;;;;44.63;31.95;;;9.70;99.90;;;;;;4863918;29;20113;-82
2024/01/25 07:24:37;;;;;;;40.25;34.15;;;9.90;99.90;;;;;;4832193;29;20391;-81
2024/01/25 07:27:04;;;;;;;43.00;35.70;;;10.20;99.90;;;;;;4846864;29;20041;-82
2024/01/25 07:29:30;;;;;;;33.70;30.30;;;10.50;99.90;;;;;;4863550;29;20021;-82
2024/01/25 07:31:56;;;;;;;30.00;27.23;;;10.70;99.90;;;;;;4861805;29;20499;-81
2024/01/25 07:34:23;;;;;;;28.23;25.38;;;10.90;99.90;;;;;;4862172;29;20029;-83
2024/01/25 07:36:49;;;;;;;26.77;23.90;;;11.20;99.90;;;;;;4863077;29;20025;-80
2024/01/25 07:39:16;;;;;;;23.05;21.15;;;11.40;99.90;;;;;;4861826;29;20133;-81
2024/01/25 07:41:42;;;;;;;24.15;22.23;;;11.60;99.90;;;;;;4863030;29;20052;-81
2024/01/25 07:44:09;;;;;;;24.20;22.08;;;11.80;99.90;;;;;;4848314;29;20085;-82
2024/01/25 07:46:35;;;;;;;23.80;21.92;;;12.00;99.90;;;;;;4830954;29;20449;-82
2024/01/25 07:49:02;;;;;;;24.00;21.98;;;12.00;99.90;;;;;;4846487;29;20060;-82
2024/01/25 07:51:28;;;;;;;23.90;21.55;;;11.90;99.90;;;;;;4872900;29;20467;-82
2024/01/25 07:53:55;;;;;;;22.88;21.05;;;12.00;99.90;;;;;;4877205;29;20487;-82
2024/01/25 07:56:24;;;;;;;25.48;22.85;;;12.10;99.90;;;;;;4853778;29;20064;-80
2024/01/25 07:58:51;;;;;;;24.02;21.58;;;12.20;99.90;;;;;;4846408;29;20037;-81
2024/01/25 08:01:21;;;;;;;24.00;22.05;;;12.40;99.90;;;;;;4871183;29;20029;-80
2024/01/25 08:03:48;;;;;;;24.05;22.17;;;12.60;99.90;;;;;;4862759;29;20044;-82
2024/01/25 08:06:15;;;;;;;24.25;22.27;;;12.80;99.90;;;;;;4861207;29;20026;-82
2024/01/25 08:08:41;;;;;;;24.73;22.60;;;12.90;99.90;;;;;;4831906;29;20511;-82
2024/01/25 08:11:08;;;;;;;24.83;23.00;;;13.20;99.90;;;;;;4838631;29;20033;-82
2024/01/25 08:13:34;;;;;;;24.25;22.25;;;13.20;99.90;;;;;;4846247;29;20053;-82
2024/01/25 08:16:09;;;;;;;23.17;21.48;;;13.30;99.90;;;;;;4830822;29;20404;-82
2024/01/25 08:18:35;;;;;;;23.13;21.27;;;13.40;99.90;;;;;;4845201;29;20033;-82
2024/01/25 08:21:02;;;;;;;22.48;20.98;;;13.60;99.90;;;;;;4868387;29;20462;-82
2024/01/25 08:23:29;;;;;;;22.45;20.45;;;13.70;99.90;;;;;;4861250;29;20037;-82
2024/01/25 08:25:55;;;;;;;21.85;19.88;;;13.80;99.90;;;;;;4861217;29;20113;-82
2024/01/25 08:28:21;;;;;;;21.88;19.92;;;14.10;99.90;;;;;;4862348;29;20391;-81
2024/01/25 08:30:48;;;;;;;21.38;19.75;;;14.10;99.90;;;;;;4866428;29;20038;-81
2024/01/25 08:33:15;;;;;;;21.63;19.98;;;14.30;99.90;;;;;;4861146;29;20377;-82
2024/01/25 08:35:42;;;;;;;22.10;20.40;;;14.30;99.90;;;;;;4876625;29;20090;-82
2024/01/25 08:38:08;;;;;;;22.08;20.45;;;14.30;99.90;;;;;;4852176;29;20522;-83
2024/01/25 08:40:37;;;;;;;21.98;20.27;;;14.40;99.90;;;;;;4864358;29;20518;-81
2024/01/25 08:43:04;;;;;;;21.88;20.17;;;14.50;99.90;;;;;;4860991;29;20117;-85
2024/01/25 08:45:31;;;;;;;21.23;19.73;;;14.60;99.90;;;;;;4860854;29;20542;-82
2024/01/25 08:47:57;;;;;;;22.10;20.25;;;14.80;99.90;;;;;;4838789;29;20057;-82
2024/01/25 08:50:24;;;;;;;21.77;20.15;;;14.80;99.90;;;;;;4862886;29;20034;-82
2024/01/25 08:52:50;;;;;;;21.88;20.25;;;14.80;99.90;;;;;;4877164;29;20040;-87
2024/01/25 08:55:17;;;;;;;22.95;20.60;;;14.90;99.90;;;;;;4861715;29;20109;-88
2024/01/25 08:57:50;;;;;;;22.60;20.70;;;14.90;99.90;;;;;;4861568;29;20033;-86
2024/01/25 09:00:18;;;;;;;20.98;19.02;;;14.90;99.90;;;;;;4857107;29;20105;-86
2024/01/25 09:02:44;;;;;;;22.23;20.05;;;15.00;99.90;;;;;;4846189;29;20131;-86
2024/01/25 09:05:11;;;;;;;20.15;18.58;;;15.10;99.90;;;;;;4846299;29;20025;-87
2024/01/25 09:07:38;;;;;;;21.63;20.23;;;15.30;99.90;;;;;;4861606;29;20129;-85
2024/01/25 09:10:05;;;;;;;20.67;19.27;;;15.20;99.90;;;;;;4846432;29;20049;-87
2024/01/25 09:12:32;;;;;;;21.35;19.67;;;15.10;99.90;;;;;;4861491;29;20432;-85
2024/01/25 09:14:58;;;;;;;21.38;19.85;;;15.10;99.90;;;;;;4861605;29;20038;-86
2024/01/25 09:17:25;;;;;;;21.80;20.30;;;15.10;99.90;;;;;;4861363;29;20035;-86
2024/01/25 09:19:51;;;;;;;21.63;20.00;;;15.10;99.90;;;;;;4861582;29;20033;-87
2024/01/25 09:22:19;;;;;;;22.40;20.58;;;15.30;99.90;;;;;;4861738;29;20045;-85
2024/01/25 09:24:46;;;;;;;23.30;21.42;;;15.50;99.90;;;;;;4861406;29;20029;-87
2024/01/25 09:27:13;;;;;;;23.85;21.60;;;15.50;99.90;;;;;;4860915;29;20037;-85
2024/01/25 09:29:40;;;;;;;22.42;20.92;;;15.60;99.90;;;;;;4845892;29;20045;-88
2024/01/25 09:32:08;;;;;;;23.17;21.63;;;15.40;99.90;;;;;;4846032;29;20040;-88
2024/01/25 09:34:39;;;;;;;23.20;21.40;;;15.40;99.90;;;;;;4861168;29;20033;-85
2024/01/25 09:37:05;;;;;;;27.40;25.38;;;15.40;99.90;;;;;;4861517;29;20040;-88
2024/01/25 09:39:33;;;;;;;26.60;24.70;;;15.50;99.90;;;;;;4845374;29;20062;-90
2024/01/25 09:41:59;;;;;;;26.35;24.35;;;15.60;99.90;;;;;;4860795;29;20053;-88
2024/01/25 09:44:25;;;;;;;27.23;25.23;;;15.70;99.90;;;;;;4830786;29;20066;-83
2024/01/25 09:46:53;;;;;;;28.00;25.88;;;15.60;99.90;;;;;;4845748;29;20041;-89
2024/01/25 09:49:19;;;;;;;27.63;25.27;;;15.70;99.90;;;;;;4830735;29;20029;-87
2024/01/25 09:51:46;;;;;;;27.75;25.67;;;15.60;99.90;;;;;;4845711;29;20085;-88
2024/01/25 09:54:14;;;;;;;28.30;25.88;;;15.60;99.90;;;;;;4845772;29;20029;-88
2024/01/25 09:56:42;;;;;;;30.65;28.02;;;15.70;99.90;;;;;;4845423;29;20101;-89
2024/01/25 09:59:09;;;;;;;34.95;31.55;;;15.70;99.90;;;;;;4860730;29;20124;-88
2024/01/25 10:01:35;;;;;;;33.75;30.98;;;15.80;99.90;;;;;;4845363;29;20070;-87
2024/01/25 10:04:06;;;;;;;32.65;29.88;;;15.80;99.90;;;;;;4845478;29;20060;-88
2024/01/25 10:06:33;;;;;;;33.13;30.73;;;15.80;99.90;;;;;;4860606;29;20055;-88
2024/01/25 10:09:00;;;;;;;33.92;31.40;;;15.70;99.90;;;;;;4845430;29;20021;-88
2024/01/25 10:11:35;;;;;;;33.55;31.25;;;15.60;99.90;;;;;;4869358;29;20037;-88
2024/01/25 10:14:02;;;;;;;33.80;31.50;;;15.70;99.90;;;;;;4860901;29;20040;-89
2024/01/25 10:16:30;;;;;;;34.08;31.67;;;15.60;99.90;;;;;;4845103;29;20025;-88
2024/01/25 10:18:57;;;;;;;33.47;31.08;;;15.70;99.90;;;;;;4860661;29;20093;-88
2024/01/25 10:21:24;;;;;;;33.20;30.90;;;15.70;99.90;;;;;;4845340;29;20037;-89
2024/01/25 10:23:51;;;;;;;33.72;31.05;;;15.80;99.90;;;;;;4860513;29;20408;-89
2024/01/25 10:26:19;;;;;;;33.58;31.15;;;15.80;99.90;;;;;;4845301;29;20116;-89
2024/01/25 10:28:55;;;;;;;33.63;30.95;;;15.70;99.90;;;;;;4860629;29;20141;-88
2024/01/25 10:31:27;;;;;;;32.80;30.55;;;15.70;99.90;;;;;;4860558;29;20071;-88
2024/01/25 10:33:54;;;;;;;33.90;31.55;;;15.70;99.90;;;;;;4845288;29;20046;-89
2024/01/25 10:36:22;;;;;;;33.90;31.20;;;15.80;99.90;;;;;;4860321;29;20025;-88
2024/01/25 10:38:52;;;;;;;34.20;31.63;;;15.90;99.90;;;;;;4845203;29;20034;-88
2024/01/25 10:41:20;;;;;;;34.03;31.55;;;15.90;99.90;;;;;;4848591;29;20167;-88
2024/01/25 10:43:46;;;;;;;35.00;32.70;;;15.90;99.90;;;;;;4864251;29;20407;-89
2024/01/25 10:46:16;;;;;;;35.35;32.90;;;16.10;99.90;;;;;;4848942;29;20174;-89
2024/01/25 10:48:43;;;;;;;34.67;32.20;;;16.20;99.90;;;;;;4865084;29;20048;-87
2024/01/25 10:51:18;;;;;;;33.92;31.63;;;16.20;99.90;;;;;;4849126;29;20045;-88
2024/01/25 10:53:45;;;;;;;34.42;31.85;;;16.10;99.90;;;;;;4861305;29;20050;-88
2024/01/25 10:56:12;;;;;;;33.72;31.52;;;15.90;99.90;;;;;;4833159;29;20033;-88
2024/01/25 10:58:41;;;;;;;34.17;31.55;;;15.80;99.90;;;;;;4848474;29;20033;-88
2024/01/25 11:01:11;;;;;;;34.03;31.83;;;15.80;99.90;;;;;;4863984;29;20041;-90
2024/01/25 11:03:40;;;;;;;34.22;31.60;;;15.90;99.90;;;;;;4848665;29;20033;-88
2024/01/25 11:06:11;;;;;;;34.55;32.20;;;15.90;99.90;;;;;;4850962;29;20034;-88
2024/01/25 11:08:39;;;;;;;34.13;31.50;;;15.80;99.90;;;;;;4864588;29;20057;-88
2024/01/25 11:11:13;;;;;;;36.00;33.28;;;15.90;99.90;;;;;;4848766;29;20033;-90
2024/01/25 11:13:42;;;;;;;35.22;32.83;;;15.80;99.90;;;;;;4830122;29;20030;-88
2024/01/25 11:16:17;;;;;;;36.28;33.65;;;15.70;99.90;;;;;;4830158;29;20026;-88
2024/01/25 11:18:51;;;;;;;34.95;32.22;;;15.90;99.90;;;;;;4829657;29;20038;-89
2024/01/25 11:21:38;;;;;;;35.97;33.28;;;15.80;99.90;;;;;;4829810;29;20067;-89
2024/01/25 11:24:05;;;;;;;36.33;33.63;;;16.00;99.90;;;;;;4829976;29;20034;-88
2024/01/25 11:26:35;;;;;;;36.58;33.45;;;16.00;99.90;;;;;;4844970;29;20026;-87
2024/01/25 11:29:01;;;;;;;36.42;33.60;;;16.10;99.90;;;;;;4845138;29;20034;-89
2024/01/25 11:31:28;;;;;;;35.97;33.25;;;16.00;99.90;;;;;;4844783;29;20034;-88
2024/01/25 11:34:02;;;;;;;36.28;33.38;;;16.00;99.90;;;;;;4845077;29;20034;-89
2024/01/25 11:36:31;;;;;;;36.83;34.10;;;16.00;99.90;;;;;;4847723;29;20037;-89
2024/01/25 11:38:58;;;;;;;36.58;33.65;;;15.90;99.90;;;;;;4834431;29;20265;-87
2024/01/25 11:41:25;;;;;;;36.47;33.50;;;16.00;99.90;;;;;;4866334;29;20037;-87
2024/01/25 11:43:52;;;;;;;35.85;33.10;;;16.10;99.90;;;;;;4851058;29;20059;-88
2024/01/25 11:46:19;;;;;;;36.30;33.53;;;16.00;99.90;;;;;;4866373;29;20033;-88
2024/01/25 11:48:45;;;;;;;35.00;32.30;;;16.00;99.90;;;;;;4851116;29;20483;-89
2024/01/25 11:51:12;;;;;;;35.05;32.45;;;15.90;99.90;;;;;;4866029;29;20128;-89
2024/01/25 11:53:39;;;;;;;36.20;33.13;;;15.90;99.90;;;;;;4850796;29;20032;-89
2024/01/25 11:56:08;;;;;;;35.70;32.78;;;16.00;99.90;;;;;;4866157;29;20037;-88
2024/01/25 11:58:36;;;;;;;36.95;33.63;;;16.00;99.90;;;;;;4851191;29;20033;-87
2024/01/25 12:01:07;;;;;;;38.38;34.30;;;15.90;99.90;;;;;;4872120;29;20036;-88
2024/01/25 12:03:37;;;;;;;35.00;32.50;;;15.80;99.90;;;;;;4882423;29;20116;-88
2024/01/25 12:06:04;;;;;;;33.65;31.35;;;15.50;99.90;;;;;;4881459;29;20025;-89
2024/01/25 12:08:35;;;;;;;33.97;31.50;;;15.40;99.90;;;;;;4881535;29;20044;-88
2024/01/25 12:11:07;;;;;;;34.28;31.80;;;15.50;99.90;;;;;;4881422;29;20025;-88
2024/01/25 12:13:40;;;;;;;32.85;30.55;;;15.40;99.90;;;;;;4881285;29;20085;-87
2024/01/25 12:16:08;;;;;;;33.92;31.33;;;15.40;99.90;;;;;;4881535;29;20033;-87
2024/01/25 12:18:35;;;;;;;33.97;31.38;;;15.40;99.90;;;;;;4847391;29;20112;-88
2024/01/25 12:21:06;;;;;;;32.05;29.55;;;15.40;99.90;;;;;;4837946;29;20025;-89
2024/01/25 12:23:40;;;;;;;32.78;30.33;;;15.40;99.90;;;;;;4865580;29;20028;-88
2024/01/25 12:26:08;;;;;;;32.25;29.85;;;15.30;99.90;;;;;;4851770;29;20044;-89
2024/01/25 12:28:35;;;;;;;33.17;30.40;;;15.20;99.90;;;;;;4865544;29;20039;-88
2024/01/25 12:31:03;;;;;;;31.80;29.35;;;15.20;99.90;;;;;;4850446;29;20037;-86
2024/01/25 12:33:30;;;;;;;31.25;28.90;;;15.30;99.90;;;;;;4865787;29;20032;-88